sensor_id;sensor_type;location;lat;lon;timestamp;P1;P2;P0
41382;PMS5003;27971;53.902;9.118;2023-02-01T00:05:04;11.57;9.6;
41382;PMS5003;27971;53.902;9.118;2023-02-01T00:07:07;11.07;10.49;
41382;PMS5003;27971;53.902;9.118;2023-02-01T00:09:10;9.75;9.16;
41382;PMS5003;27971;53.902;9.118;2023-02-01T00:11:14;11.02;9.76;
41382;PMS5003;27971;53.902;9.118;2023-02-01T00:13:16;11.04;10.34;
41382;PMS5003;27971;53.902;9.118;2023-02-01T00:15:19;11.21;10.22;
41382;PMS5003;27971;53.902;9.118;2023-02-01T00:17:21;13.09;11.19;
41382;PMS5003;27971;53.902;9.118;2023-02-01T00:19:24;11.13;9.63;
41382;PMS5003;27971;53.902;9.118;2023-02-01T00:21:27;10.8;9.79;
41382;PMS5003;27971;53.902;9.118;2023-02-01T00:23:31;10.89;9.46;
41382;PMS5003;27971;53.902;9.118;2023-02-01T00:25:33;9.91;9.21;
41382;PMS5003;27971;53.902;9.118;2023-02-01T00:27:36;10.76;9.2;
41382;PMS5003;27971;53.902;9.118;2023-02-01T00:29:38;12.47;9.7;
41382;PMS5003;27971;53.902;9.118;2023-02-01T00:31:41;12.01;10.19;
41382;PMS5003;27971;53.902;9.118;2023-02-01T00:33:46;11.12;10.0;
41382;PMS5003;27971;53.902;9.118;2023-02-01T00:35:45;10.92;9.71;
41382;PMS5003;27971;53.902;9.118;2023-02-01T00:37:48;11.86;9.52;
41382;PMS5003;27971;53.902;9.118;2023-02-01T00:39:50;11.17;9.57;
41382;PMS5003;27971;53.902;9.118;2023-02-01T00:41:53;11.2;10.27;
41382;PMS5003;27971;53.902;9.118;2023-02-01T00:43:55;11.0;9.47;
41382;PMS5003;27971;53.902;9.118;2023-02-01T00:45:58;9.32;8.69;
41382;PMS5003;27971;53.902;9.118;2023-02-01T00:48:00;10.46;8.39;
41382;PMS5003;27971;53.902;9.118;2023-02-01T00:50:03;12.64;10.26;
41382;PMS5003;27971;53.902;9.118;2023-02-01T00:52:06;11.46;9.33;
41382;PMS5003;27971;53.902;9.118;2023-02-01T00:54:09;10.82;8.93;
41382;PMS5003;27971;53.902;9.118;2023-02-01T00:56:12;13.9;9.97;
41382;PMS5003;27971;53.902;9.118;2023-02-01T00:58:14;10.56;9.88;
41382;PMS5003;27971;53.902;9.118;2023-02-01T01:00:17;10.17;9.18;
41382;PMS5003;27971;53.902;9.118;2023-02-01T01:02:19;9.81;9.24;
41382;PMS5003;27971;53.902;9.118;2023-02-01T01:04:22;10.42;9.26;
41382;PMS5003;27971;53.902;9.118;2023-02-01T01:06:26;13.03;10.11;
41382;PMS5003;27971;53.902;9.118;2023-02-01T01:08:27;11.97;9.66;
41382;PMS5003;27971;53.902;9.118;2023-02-01T01:10:30;9.89;9.09;
41382;PMS5003;27971;53.902;9.118;2023-02-01T01:12:32;9.16;8.74;
41382;PMS5003;27971;53.902;9.118;2023-02-01T01:14:36;11.97;9.63;
41382;PMS5003;27971;53.902;9.118;2023-02-01T01:16:39;9.29;8.76;
41382;PMS5003;27971;53.902;9.118;2023-02-01T01:18:41;11.36;9.27;
41382;PMS5003;27971;53.902;9.118;2023-02-01T01:20:44;9.45;8.54;
41382;PMS5003;27971;53.902;9.118;2023-02-01T01:22:47;11.45;9.93;
41382;PMS5003;27971;53.902;9.118;2023-02-01T01:24:50;10.31;8.21;
41382;PMS5003;27971;53.902;9.118;2023-02-01T01:26:52;10.65;9.8;
41382;PMS5003;27971;53.902;9.118;2023-02-01T01:28:56;9.22;8.42;
41382;PMS5003;27971;53.902;9.118;2023-02-01T01:30:59;10.58;9.1;
41382;PMS5003;27971;53.902;9.118;2023-02-01T01:33:02;11.48;10.06;
41382;PMS5003;27971;53.902;9.118;2023-02-01T01:35:05;10.18;8.69;
41382;PMS5003;27971;53.902;9.118;2023-02-01T01:37:07;10.31;9.16;
41382;PMS5003;27971;53.902;9.118;2023-02-01T01:39:09;11.18;9.94;
41382;PMS5003;27971;53.902;9.118;2023-02-01T01:41:13;9.31;8.55;
41382;PMS5003;27971;53.902;9.118;2023-02-01T01:43:14;9.14;7.85;
41382;PMS5003;27971;53.902;9.118;2023-02-01T01:45:20;11.84;9.92;
41382;PMS5003;27971;53.902;9.118;2023-02-01T01:47:19;10.18;9.55;
41382;PMS5003;27971;53.902;9.118;2023-02-01T01:49:23;10.86;8.71;
41382;PMS5003;27971;53.902;9.118;2023-02-01T01:51:25;12.37;10.27;
41382;PMS5003;27971;53.902;9.118;2023-02-01T01:53:30;10.32;8.99;
41382;PMS5003;27971;53.902;9.118;2023-02-01T01:55:32;10.1;8.9;
41382;PMS5003;27971;53.902;9.118;2023-02-01T01:57:35;9.66;9.06;
41382;PMS5003;27971;53.902;9.118;2023-02-01T01:59:37;10.53;9.05;
41382;PMS5003;27971;53.902;9.118;2023-02-01T02:01:40;10.09;8.79;
41382;PMS5003;27971;53.902;9.118;2023-02-01T02:03:44;11.17;10.47;
41382;PMS5003;27971;53.902;9.118;2023-02-01T02:05:45;9.43;8.87;
41382;PMS5003;27971;53.902;9.118;2023-02-01T02:07:48;8.93;7.67;
41382;PMS5003;27971;53.902;9.118;2023-02-01T02:09:51;10.09;8.41;
41382;PMS5003;27971;53.902;9.118;2023-02-01T02:11:54;10.77;7.94;
41382;PMS5003;27971;53.902;9.118;2023-02-01T02:13:56;9.75;8.51;
41382;PMS5003;27971;53.902;9.118;2023-02-01T02:16:03;9.14;8.3;
41382;PMS5003;27971;53.902;9.118;2023-02-01T02:18:03;8.42;7.56;
41382;PMS5003;27971;53.902;9.118;2023-02-01T02:20:12;10.01;8.5;
41382;PMS5003;27971;53.902;9.118;2023-02-01T02:22:13;9.57;8.82;
41382;PMS5003;27971;53.902;9.118;2023-02-01T02:24:13;11.28;9.56;
41382;PMS5003;27971;53.902;9.118;2023-02-01T02:26:15;8.6;7.66;
41382;PMS5003;27971;53.902;9.118;2023-02-01T02:28:21;9.25;8.15;
41382;PMS5003;27971;53.902;9.118;2023-02-01T02:30:23;9.6;7.91;
41382;PMS5003;27971;53.902;9.118;2023-02-01T02:32:23;8.59;7.4;
41382;PMS5003;27971;53.902;9.118;2023-02-01T02:34:24;10.92;9.56;
41382;PMS5003;27971;53.902;9.118;2023-02-01T02:36:30;8.31;7.99;
41382;PMS5003;27971;53.902;9.118;2023-02-01T02:38:30;8.08;7.83;
41382;PMS5003;27971;53.902;9.118;2023-02-01T02:40:33;8.76;8.23;
41382;PMS5003;27971;53.902;9.118;2023-02-01T02:42:37;9.85;9.33;
41382;PMS5003;27971;53.902;9.118;2023-02-01T02:44:40;9.9;8.47;
41382;PMS5003;27971;53.902;9.118;2023-02-01T02:46:40;9.72;8.63;
41382;PMS5003;27971;53.902;9.118;2023-02-01T02:48:44;12.38;10.19;
41382;PMS5003;27971;53.902;9.118;2023-02-01T02:50:48;9.16;8.3;
41382;PMS5003;27971;53.902;9.118;2023-02-01T02:52:51;9.59;8.59;
41382;PMS5003;27971;53.902;9.118;2023-02-01T02:54:53;9.47;7.99;
41382;PMS5003;27971;53.902;9.118;2023-02-01T02:56:56;8.9;8.32;
41382;PMS5003;27971;53.902;9.118;2023-02-01T02:58:58;9.85;8.18;
41382;PMS5003;27971;53.902;9.118;2023-02-01T03:01:00;9.43;8.12;
41382;PMS5003;27971;53.902;9.118;2023-02-01T03:03:03;8.39;7.87;
41382;PMS5003;27971;53.902;9.118;2023-02-01T03:05:05;10.02;8.22;
41382;PMS5003;27971;53.902;9.118;2023-02-01T03:07:11;9.78;8.29;
41382;PMS5003;27971;53.902;9.118;2023-02-01T03:09:13;9.27;7.7;
41382;PMS5003;27971;53.902;9.118;2023-02-01T03:11:13;9.87;8.1;
41382;PMS5003;27971;53.902;9.118;2023-02-01T03:13:17;6.92;6.27;
41382;PMS5003;27971;53.902;9.118;2023-02-01T03:15:18;7.86;7.14;
41382;PMS5003;27971;53.902;9.118;2023-02-01T03:17:24;9.64;8.29;
41382;PMS5003;27971;53.902;9.118;2023-02-01T03:19:25;10.0;8.9;
41382;PMS5003;27971;53.902;9.118;2023-02-01T03:21:29;7.66;7.29;
41382;PMS5003;27971;53.902;9.118;2023-02-01T03:23:31;8.47;7.39;
41382;PMS5003;27971;53.902;9.118;2023-02-01T03:25:34;8.7;7.56;
41382;PMS5003;27971;53.902;9.118;2023-02-01T03:27:37;9.49;8.58;
41382;PMS5003;27971;53.902;9.118;2023-02-01T03:29:40;9.1;7.95;
41382;PMS5003;27971;53.902;9.118;2023-02-01T03:31:42;10.23;8.31;
41382;PMS5003;27971;53.902;9.118;2023-02-01T03:33:44;8.23;7.6;
41382;PMS5003;27971;53.902;9.118;2023-02-01T03:35:50;9.27;8.61;
41382;PMS5003;27971;53.902;9.118;2023-02-01T03:37:49;9.1;8.33;
41382;PMS5003;27971;53.902;9.118;2023-02-01T03:39:53;11.13;9.26;
41382;PMS5003;27971;53.902;9.118;2023-02-01T03:41:56;9.45;8.05;
41382;PMS5003;27971;53.902;9.118;2023-02-01T03:43:58;10.69;8.97;
41382;PMS5003;27971;53.902;9.118;2023-02-01T03:46:03;8.3;7.58;
41382;PMS5003;27971;53.902;9.118;2023-02-01T03:48:05;8.67;7.67;
41382;PMS5003;27971;53.902;9.118;2023-02-01T03:50:08;8.37;7.44;
41382;PMS5003;27971;53.902;9.118;2023-02-01T03:52:11;9.24;7.78;
41382;PMS5003;27971;53.902;9.118;2023-02-01T03:54:13;9.1;8.32;
41382;PMS5003;27971;53.902;9.118;2023-02-01T03:56:17;7.9;7.1;
41382;PMS5003;27971;53.902;9.118;2023-02-01T03:58:20;8.06;6.9;
41382;PMS5003;27971;53.902;9.118;2023-02-01T04:00:23;9.79;8.01;
41382;PMS5003;27971;53.902;9.118;2023-02-01T04:02:24;9.25;8.19;
41382;PMS5003;27971;53.902;9.118;2023-02-01T04:04:27;7.07;6.36;
41382;PMS5003;27971;53.902;9.118;2023-02-01T04:06:30;8.63;7.08;
41382;PMS5003;27971;53.902;9.118;2023-02-01T04:08:32;7.62;7.21;
41382;PMS5003;27971;53.902;9.118;2023-02-01T04:10:34;9.96;9.06;
41382;PMS5003;27971;53.902;9.118;2023-02-01T04:12:37;8.97;7.79;
41382;PMS5003;27971;53.902;9.118;2023-02-01T04:14:40;7.89;6.93;
41382;PMS5003;27971;53.902;9.118;2023-02-01T04:16:42;9.06;8.49;
41382;PMS5003;27971;53.902;9.118;2023-02-01T04:18:45;8.2;7.26;
41382;PMS5003;27971;53.902;9.118;2023-02-01T04:20:47;7.99;7.02;
41382;PMS5003;27971;53.902;9.118;2023-02-01T04:22:50;8.62;7.68;
41382;PMS5003;27971;53.902;9.118;2023-02-01T04:24:53;7.81;6.57;
41382;PMS5003;27971;53.902;9.118;2023-02-01T04:26:55;8.27;7.31;
41382;PMS5003;27971;53.902;9.118;2023-02-01T04:28:58;10.52;9.17;
41382;PMS5003;27971;53.902;9.118;2023-02-01T04:31:00;7.83;7.0;
41382;PMS5003;27971;53.902;9.118;2023-02-01T04:33:02;8.88;6.89;
41382;PMS5003;27971;53.902;9.118;2023-02-01T04:35:06;7.31;6.16;
41382;PMS5003;27971;53.902;9.118;2023-02-01T04:37:08;7.52;6.98;
41382;PMS5003;27971;53.902;9.118;2023-02-01T04:39:10;9.03;8.0;
41382;PMS5003;27971;53.902;9.118;2023-02-01T04:41:13;7.73;7.63;
41382;PMS5003;27971;53.902;9.118;2023-02-01T04:43:16;7.66;6.8;
41382;PMS5003;27971;53.902;9.118;2023-02-01T04:45:20;9.08;7.5;
41382;PMS5003;27971;53.902;9.118;2023-02-01T04:47:22;10.7;8.24;
41382;PMS5003;27971;53.902;9.118;2023-02-01T04:49:24;7.23;6.82;
41382;PMS5003;27971;53.902;9.118;2023-02-01T04:51:27;8.91;7.32;
41382;PMS5003;27971;53.902;9.118;2023-02-01T04:53:30;8.2;7.07;
41382;PMS5003;27971;53.902;9.118;2023-02-01T04:55:32;7.78;6.8;
41382;PMS5003;27971;53.902;9.118;2023-02-01T04:57:35;7.67;6.8;
41382;PMS5003;27971;53.902;9.118;2023-02-01T04:59:37;9.17;7.83;
41382;PMS5003;27971;53.902;9.118;2023-02-01T05:01:39;7.61;7.01;
41382;PMS5003;27971;53.902;9.118;2023-02-01T05:03:43;7.97;6.98;
41382;PMS5003;27971;53.902;9.118;2023-02-01T05:05:46;7.66;6.78;
41382;PMS5003;27971;53.902;9.118;2023-02-01T05:07:48;8.89;6.99;
41382;PMS5003;27971;53.902;9.118;2023-02-01T05:09:50;8.72;7.18;
41382;PMS5003;27971;53.902;9.118;2023-02-01T05:11:53;7.33;6.46;
41382;PMS5003;27971;53.902;9.118;2023-02-01T05:13:56;8.71;6.67;
41382;PMS5003;27971;53.902;9.118;2023-02-01T05:15:58;8.14;7.08;
41382;PMS5003;27971;53.902;9.118;2023-02-01T05:18:01;8.09;6.81;
41382;PMS5003;27971;53.902;9.118;2023-02-01T05:20:04;9.59;8.32;
41382;PMS5003;27971;53.902;9.118;2023-02-01T05:22:06;8.66;7.44;
41382;PMS5003;27971;53.902;9.118;2023-02-01T05:24:08;7.53;6.26;
41382;PMS5003;27971;53.902;9.118;2023-02-01T05:26:11;7.58;6.51;
41382;PMS5003;27971;53.902;9.118;2023-02-01T05:28:14;7.59;6.48;
41382;PMS5003;27971;53.902;9.118;2023-02-01T05:30:17;8.5;7.09;
41382;PMS5003;27971;53.902;9.118;2023-02-01T05:32:19;8.11;6.88;
41382;PMS5003;27971;53.902;9.118;2023-02-01T05:34:22;7.32;6.7;
41382;PMS5003;27971;53.902;9.118;2023-02-01T05:36:25;8.92;8.09;
41382;PMS5003;27971;53.902;9.118;2023-02-01T05:38:28;6.51;5.91;
41382;PMS5003;27971;53.902;9.118;2023-02-01T05:40:30;6.16;5.99;
41382;PMS5003;27971;53.902;9.118;2023-02-01T05:42:33;8.02;6.98;
41382;PMS5003;27971;53.902;9.118;2023-02-01T05:44:36;7.23;6.69;
41382;PMS5003;27971;53.902;9.118;2023-02-01T05:46:39;8.14;6.68;
41382;PMS5003;27971;53.902;9.118;2023-02-01T05:48:41;7.59;6.52;
41382;PMS5003;27971;53.902;9.118;2023-02-01T05:50:44;8.51;7.21;
41382;PMS5003;27971;53.902;9.118;2023-02-01T05:52:47;7.3;6.44;
41382;PMS5003;27971;53.902;9.118;2023-02-01T05:54:50;8.02;6.63;
41382;PMS5003;27971;53.902;9.118;2023-02-01T05:56:52;6.92;5.97;
41382;PMS5003;27971;53.902;9.118;2023-02-01T05:58:55;8.56;6.91;
41382;PMS5003;27971;53.902;9.118;2023-02-01T06:00:58;6.13;5.63;
41382;PMS5003;27971;53.902;9.118;2023-02-01T06:03:01;7.42;6.76;
41382;PMS5003;27971;53.902;9.118;2023-02-01T06:05:04;7.13;6.41;
41382;PMS5003;27971;53.902;9.118;2023-02-01T06:07:06;7.67;6.46;
41382;PMS5003;27971;53.902;9.118;2023-02-01T06:09:08;8.38;6.42;
41382;PMS5003;27971;53.902;9.118;2023-02-01T06:11:10;6.46;5.91;
41382;PMS5003;27971;53.902;9.118;2023-02-01T06:13:13;7.21;6.18;
41382;PMS5003;27971;53.902;9.118;2023-02-01T06:15:16;9.58;7.39;
41382;PMS5003;27971;53.902;9.118;2023-02-01T06:17:19;7.5;5.93;
41382;PMS5003;27971;53.902;9.118;2023-02-01T06:19:21;7.12;5.77;
41382;PMS5003;27971;53.902;9.118;2023-02-01T06:21:24;5.86;5.37;
41382;PMS5003;27971;53.902;9.118;2023-02-01T06:23:27;6.67;6.23;
41382;PMS5003;27971;53.902;9.118;2023-02-01T06:25:29;7.62;6.79;
41382;PMS5003;27971;53.902;9.118;2023-02-01T06:27:32;6.06;5.61;
41382;PMS5003;27971;53.902;9.118;2023-02-01T06:29:35;7.44;6.2;
41382;PMS5003;27971;53.902;9.118;2023-02-01T06:31:38;6.94;6.24;
41382;PMS5003;27971;53.902;9.118;2023-02-01T06:33:40;7.53;5.9;
41382;PMS5003;27971;53.902;9.118;2023-02-01T06:35:43;7.56;5.72;
41382;PMS5003;27971;53.902;9.118;2023-02-01T06:37:46;6.21;5.83;
41382;PMS5003;27971;53.902;9.118;2023-02-01T06:39:48;6.92;5.7;
41382;PMS5003;27971;53.902;9.118;2023-02-01T06:41:51;6.24;5.5;
41382;PMS5003;27971;53.902;9.118;2023-02-01T06:43:54;7.6;6.47;
41382;PMS5003;27971;53.902;9.118;2023-02-01T06:45:59;6.3;5.73;
41382;PMS5003;27971;53.902;9.118;2023-02-01T06:48:00;6.61;6.03;
41382;PMS5003;27971;53.902;9.118;2023-02-01T06:50:02;8.68;6.37;
41382;PMS5003;27971;53.902;9.118;2023-02-01T06:52:05;6.02;4.99;
41382;PMS5003;27971;53.902;9.118;2023-02-01T06:54:08;7.91;6.68;
41382;PMS5003;27971;53.902;9.118;2023-02-01T06:56:11;7.08;5.83;
41382;PMS5003;27971;53.902;9.118;2023-02-01T06:58:13;7.0;5.82;
41382;PMS5003;27971;53.902;9.118;2023-02-01T07:00:16;6.66;5.4;
41382;PMS5003;27971;53.902;9.118;2023-02-01T07:02:19;5.57;4.8;
41382;PMS5003;27971;53.902;9.118;2023-02-01T07:04:21;6.2;5.5;
41382;PMS5003;27971;53.902;9.118;2023-02-01T07:06:25;6.18;5.54;
41382;PMS5003;27971;53.902;9.118;2023-02-01T07:08:28;6.72;5.57;
41382;PMS5003;27971;53.902;9.118;2023-02-01T07:10:31;6.33;5.83;
41382;PMS5003;27971;53.902;9.118;2023-02-01T07:12:34;5.94;5.01;
41382;PMS5003;27971;53.902;9.118;2023-02-01T07:14:37;5.47;4.88;
41382;PMS5003;27971;53.902;9.118;2023-02-01T07:16:40;4.87;4.32;
41382;PMS5003;27971;53.902;9.118;2023-02-01T07:18:42;6.38;5.64;
41382;PMS5003;27971;53.902;9.118;2023-02-01T07:20:49;7.47;6.63;
41382;PMS5003;27971;53.902;9.118;2023-02-01T07:22:47;6.67;5.94;
41382;PMS5003;27971;53.902;9.118;2023-02-01T07:24:50;5.8;5.4;
41382;PMS5003;27971;53.902;9.118;2023-02-01T07:26:53;5.74;5.38;
41382;PMS5003;27971;53.902;9.118;2023-02-01T07:28:55;6.13;5.33;
41382;PMS5003;27971;53.902;9.118;2023-02-01T07:31:01;8.9;6.62;
41382;PMS5003;27971;53.902;9.118;2023-02-01T07:33:01;5.47;5.09;
41382;PMS5003;27971;53.902;9.118;2023-02-01T07:35:03;6.31;4.98;
41382;PMS5003;27971;53.902;9.118;2023-02-01T07:37:05;5.29;5.03;
41382;PMS5003;27971;53.902;9.118;2023-02-01T07:39:08;5.97;5.58;
41382;PMS5003;27971;53.902;9.118;2023-02-01T07:41:11;6.3;5.89;
41382;PMS5003;27971;53.902;9.118;2023-02-01T07:43:13;6.27;5.04;
41382;PMS5003;27971;53.902;9.118;2023-02-01T07:45:16;6.7;5.51;
41382;PMS5003;27971;53.902;9.118;2023-02-01T07:47:18;5.6;5.2;
41382;PMS5003;27971;53.902;9.118;2023-02-01T07:49:21;5.14;4.67;
41382;PMS5003;27971;53.902;9.118;2023-02-01T07:51:24;5.4;4.84;
41382;PMS5003;27971;53.902;9.118;2023-02-01T07:53:26;6.84;5.71;
41382;PMS5003;27971;53.902;9.118;2023-02-01T07:55:29;7.28;5.17;
41382;PMS5003;27971;53.902;9.118;2023-02-01T07:57:32;5.54;4.91;
41382;PMS5003;27971;53.902;9.118;2023-02-01T07:59:35;5.36;4.52;
41382;PMS5003;27971;53.902;9.118;2023-02-01T08:01:37;6.02;4.72;
41382;PMS5003;27971;53.902;9.118;2023-02-01T08:03:40;6.52;5.4;
41382;PMS5003;27971;53.902;9.118;2023-02-01T08:05:43;5.77;4.9;
41382;PMS5003;27971;53.902;9.118;2023-02-01T08:07:48;6.58;6.08;
41382;PMS5003;27971;53.902;9.118;2023-02-01T08:09:49;6.06;4.93;
41382;PMS5003;27971;53.902;9.118;2023-02-01T08:11:51;5.73;4.44;
41382;PMS5003;27971;53.902;9.118;2023-02-01T08:13:54;5.33;5.11;
41382;PMS5003;27971;53.902;9.118;2023-02-01T08:15:57;6.41;5.81;
41382;PMS5003;27971;53.902;9.118;2023-02-01T08:18:00;6.37;4.91;
41382;PMS5003;27971;53.902;9.118;2023-02-01T08:20:03;6.46;5.4;
41382;PMS5003;27971;53.902;9.118;2023-02-01T08:22:05;7.3;5.39;
41382;PMS5003;27971;53.902;9.118;2023-02-01T08:24:08;5.1;4.64;
41382;PMS5003;27971;53.902;9.118;2023-02-01T08:26:11;5.56;4.58;
41382;PMS5003;27971;53.902;9.118;2023-02-01T08:28:13;4.94;4.8;
41382;PMS5003;27971;53.902;9.118;2023-02-01T08:30:15;7.03;5.73;
41382;PMS5003;27971;53.902;9.118;2023-02-01T08:32:18;6.54;5.0;
41382;PMS5003;27971;53.902;9.118;2023-02-01T08:34:21;5.36;4.86;
41382;PMS5003;27971;53.902;9.118;2023-02-01T08:36:24;5.17;4.6;
41382;PMS5003;27971;53.902;9.118;2023-02-01T08:38:27;4.8;4.51;
41382;PMS5003;27971;53.902;9.118;2023-02-01T08:40:30;7.07;5.23;
41382;PMS5003;27971;53.902;9.118;2023-02-01T08:42:32;5.58;5.04;
41382;PMS5003;27971;53.902;9.118;2023-02-01T08:44:35;6.42;4.78;
41382;PMS5003;27971;53.902;9.118;2023-02-01T08:46:37;7.26;4.48;
41382;PMS5003;27971;53.902;9.118;2023-02-01T08:48:40;5.73;4.42;
41382;PMS5003;27971;53.902;9.118;2023-02-01T08:50:42;7.38;5.3;
41382;PMS5003;27971;53.902;9.118;2023-02-01T08:52:45;4.28;3.68;
41382;PMS5003;27971;53.902;9.118;2023-02-01T08:54:48;5.83;4.83;
41382;PMS5003;27971;53.902;9.118;2023-02-01T08:56:50;5.99;4.57;
41382;PMS5003;27971;53.902;9.118;2023-02-01T08:58:53;6.18;5.32;
41382;PMS5003;27971;53.902;9.118;2023-02-01T09:00:55;5.87;4.36;
41382;PMS5003;27971;53.902;9.118;2023-02-01T09:02:58;6.04;5.26;
41382;PMS5003;27971;53.902;9.118;2023-02-01T09:05:00;7.06;6.28;
41382;PMS5003;27971;53.902;9.118;2023-02-01T09:07:03;7.16;6.2;
41382;PMS5003;27971;53.902;9.118;2023-02-01T09:09:06;5.59;5.24;
41382;PMS5003;27971;53.902;9.118;2023-02-01T09:11:10;6.64;6.08;
41382;PMS5003;27971;53.902;9.118;2023-02-01T09:13:10;8.68;6.02;
41382;PMS5003;27971;53.902;9.118;2023-02-01T09:15:13;8.91;7.34;
41382;PMS5003;27971;53.902;9.118;2023-02-01T09:17:15;8.93;7.27;
41382;PMS5003;27971;53.902;9.118;2023-02-01T09:19:18;8.23;7.09;
41382;PMS5003;27971;53.902;9.118;2023-02-01T09:21:20;8.68;7.41;
41382;PMS5003;27971;53.902;9.118;2023-02-01T09:23:23;9.82;7.21;
41382;PMS5003;27971;53.902;9.118;2023-02-01T09:25:27;9.21;7.28;
41382;PMS5003;27971;53.902;9.118;2023-02-01T09:27:29;9.99;8.47;
41382;PMS5003;27971;53.902;9.118;2023-02-01T09:29:32;9.96;7.84;
41382;PMS5003;27971;53.902;9.118;2023-02-01T09:31:34;9.06;7.64;
41382;PMS5003;27971;53.902;9.118;2023-02-01T09:33:37;10.67;8.87;
41382;PMS5003;27971;53.902;9.118;2023-02-01T09:35:39;11.41;8.98;
41382;PMS5003;27971;53.902;9.118;2023-02-01T09:37:47;11.86;8.59;
41382;PMS5003;27971;53.902;9.118;2023-02-01T09:39:45;11.47;8.24;
41382;PMS5003;27971;53.902;9.118;2023-02-01T09:41:50;9.26;7.57;
41382;PMS5003;27971;53.902;9.118;2023-02-01T09:43:52;10.98;8.16;
41382;PMS5003;27971;53.902;9.118;2023-02-01T09:45:55;8.53;7.63;
41382;PMS5003;27971;53.902;9.118;2023-02-01T09:47:55;10.61;7.72;
41382;PMS5003;27971;53.902;9.118;2023-02-01T09:49:59;11.24;8.31;
41382;PMS5003;27971;53.902;9.118;2023-02-01T09:52:00;9.86;7.77;
41382;PMS5003;27971;53.902;9.118;2023-02-01T09:54:04;10.06;8.33;
41382;PMS5003;27971;53.902;9.118;2023-02-01T09:56:06;8.38;6.81;
41382;PMS5003;27971;53.902;9.118;2023-02-01T09:58:11;9.51;8.0;
41382;PMS5003;27971;53.902;9.118;2023-02-01T10:00:14;11.02;8.01;
41382;PMS5003;27971;53.902;9.118;2023-02-01T10:02:14;11.2;8.55;
41382;PMS5003;27971;53.902;9.118;2023-02-01T10:04:16;8.87;7.93;
41382;PMS5003;27971;53.902;9.118;2023-02-01T10:06:22;10.15;6.76;
41382;PMS5003;27971;53.902;9.118;2023-02-01T10:08:24;9.94;8.49;
41382;PMS5003;27971;53.902;9.118;2023-02-01T10:10:26;10.99;8.94;
41382;PMS5003;27971;53.902;9.118;2023-02-01T10:12:32;8.65;7.11;
41382;PMS5003;27971;53.902;9.118;2023-02-01T10:14:41;10.68;8.55;
41382;PMS5003;27971;53.902;9.118;2023-02-01T10:16:35;8.62;7.88;
41382;PMS5003;27971;53.902;9.118;2023-02-01T10:19:13;9.55;8.63;
41382;PMS5003;27971;53.902;9.118;2023-02-01T10:20:43;9.13;6.4;
41382;PMS5003;27971;53.902;9.118;2023-02-01T10:22:40;8.99;7.09;
41382;PMS5003;27971;53.902;9.118;2023-02-01T10:24:43;13.07;10.05;
41382;PMS5003;27971;53.902;9.118;2023-02-01T10:26:46;11.15;9.38;
41382;PMS5003;27971;53.902;9.118;2023-02-01T10:28:49;8.67;7.38;
41382;PMS5003;27971;53.902;9.118;2023-02-01T10:30:51;10.43;8.42;
41382;PMS5003;27971;53.902;9.118;2023-02-01T10:32:55;9.67;7.53;
41382;PMS5003;27971;53.902;9.118;2023-02-01T10:34:57;9.93;7.42;
41382;PMS5003;27971;53.902;9.118;2023-02-01T10:37:00;11.36;10.1;
41382;PMS5003;27971;53.902;9.118;2023-02-01T10:39:02;9.92;7.25;
41382;PMS5003;27971;53.902;9.118;2023-02-01T10:41:08;8.59;6.73;
41382;PMS5003;27971;53.902;9.118;2023-02-01T10:43:07;9.25;7.96;
41382;PMS5003;27971;53.902;9.118;2023-02-01T10:45:11;11.42;8.01;
41382;PMS5003;27971;53.902;9.118;2023-02-01T10:47:12;9.63;7.52;
41382;PMS5003;27971;53.902;9.118;2023-02-01T10:49:18;8.77;7.81;
41382;PMS5003;27971;53.902;9.118;2023-02-01T10:51:20;8.34;7.53;
41382;PMS5003;27971;53.902;9.118;2023-02-01T10:53:22;8.12;6.76;
41382;PMS5003;27971;53.902;9.118;2023-02-01T10:55:29;10.8;8.92;
41382;PMS5003;27971;53.902;9.118;2023-02-01T10:57:27;8.48;7.05;
41382;PMS5003;27971;53.902;9.118;2023-02-01T10:59:30;9.11;7.51;
41382;PMS5003;27971;53.902;9.118;2023-02-01T11:01:33;9.03;8.06;
41382;PMS5003;27971;53.902;9.118;2023-02-01T11:03:37;10.87;8.64;
41382;PMS5003;27971;53.902;9.118;2023-02-01T11:05:43;8.9;6.78;
41382;PMS5003;27971;53.902;9.118;2023-02-01T11:07:45;8.93;7.7;
41382;PMS5003;27971;53.902;9.118;2023-02-01T11:09:48;8.66;7.45;
41382;PMS5003;27971;53.902;9.118;2023-02-01T11:11:53;9.12;7.66;
41382;PMS5003;27971;53.902;9.118;2023-02-01T11:13:54;9.75;8.2;
41382;PMS5003;27971;53.902;9.118;2023-02-01T11:15:54;10.05;7.47;
41382;PMS5003;27971;53.902;9.118;2023-02-01T11:17:55;8.01;5.61;
41382;PMS5003;27971;53.902;9.118;2023-02-01T11:19:58;9.61;7.81;
41382;PMS5003;27971;53.902;9.118;2023-02-01T11:22:00;7.91;6.31;
41382;PMS5003;27971;53.902;9.118;2023-02-01T11:24:03;7.14;6.11;
41382;PMS5003;27971;53.902;9.118;2023-02-01T11:26:12;9.11;6.88;
41382;PMS5003;27971;53.902;9.118;2023-02-01T11:28:08;6.88;6.31;
41382;PMS5003;27971;53.902;9.118;2023-02-01T11:30:15;7.3;5.56;
41382;PMS5003;27971;53.902;9.118;2023-02-01T11:32:20;7.67;6.81;
41382;PMS5003;27971;53.902;9.118;2023-02-01T11:34:17;9.37;7.63;
41382;PMS5003;27971;53.902;9.118;2023-02-01T11:36:20;8.96;6.48;
41382;PMS5003;27971;53.902;9.118;2023-02-01T11:38:29;8.9;6.95;
41382;PMS5003;27971;53.902;9.118;2023-02-01T11:40:27;9.1;6.94;
41382;PMS5003;27971;53.902;9.118;2023-02-01T11:42:29;9.5;7.82;
41382;PMS5003;27971;53.902;9.118;2023-02-01T11:44:33;7.67;6.13;
41382;PMS5003;27971;53.902;9.118;2023-02-01T11:46:34;8.41;7.52;
41382;PMS5003;27971;53.902;9.118;2023-02-01T11:48:36;6.61;5.74;
41382;PMS5003;27971;53.902;9.118;2023-02-01T11:50:41;8.07;7.16;
41382;PMS5003;27971;53.902;9.118;2023-02-01T11:52:48;8.05;6.14;
41382;PMS5003;27971;53.902;9.118;2023-02-01T11:54:51;6.99;5.82;
41382;PMS5003;27971;53.902;9.118;2023-02-01T11:56:51;5.99;5.45;
41382;PMS5003;27971;53.902;9.118;2023-02-01T11:58:56;8.09;6.16;
41382;PMS5003;27971;53.902;9.118;2023-02-01T12:00:58;9.21;6.82;
41382;PMS5003;27971;53.902;9.118;2023-02-01T12:03:02;8.9;6.42;
41382;PMS5003;27971;53.902;9.118;2023-02-01T12:05:03;7.19;6.24;
41382;PMS5003;27971;53.902;9.118;2023-02-01T12:07:04;8.04;6.04;
41382;PMS5003;27971;53.902;9.118;2023-02-01T12:09:09;7.75;5.98;
41382;PMS5003;27971;53.902;9.118;2023-02-01T12:11:17;8.9;6.83;
41382;PMS5003;27971;53.902;9.118;2023-02-01T12:13:14;9.14;7.13;
41382;PMS5003;27971;53.902;9.118;2023-02-01T12:15:19;7.29;6.1;
41382;PMS5003;27971;53.902;9.118;2023-02-01T12:17:24;7.0;5.78;
41382;PMS5003;27971;53.902;9.118;2023-02-01T12:19:23;7.42;6.42;
41382;PMS5003;27971;53.902;9.118;2023-02-01T12:21:26;10.03;7.03;
41382;PMS5003;27971;53.902;9.118;2023-02-01T12:23:31;9.49;7.74;
41382;PMS5003;27971;53.902;9.118;2023-02-01T12:25:33;8.61;7.19;
41382;PMS5003;27971;53.902;9.118;2023-02-01T12:27:36;9.04;7.55;
41382;PMS5003;27971;53.902;9.118;2023-02-01T12:29:47;6.95;5.46;
41382;PMS5003;27971;53.902;9.118;2023-02-01T12:31:42;9.35;8.04;
41382;PMS5003;27971;53.902;9.118;2023-02-01T12:33:42;8.27;6.56;
41382;PMS5003;27971;53.902;9.118;2023-02-01T12:35:46;6.53;6.04;
41382;PMS5003;27971;53.902;9.118;2023-02-01T12:37:50;8.83;7.48;
41382;PMS5003;27971;53.902;9.118;2023-02-01T12:39:48;6.05;4.55;
41382;PMS5003;27971;53.902;9.118;2023-02-01T12:41:52;6.67;5.77;
41382;PMS5003;27971;53.902;9.118;2023-02-01T12:43:53;7.62;5.79;
41382;PMS5003;27971;53.902;9.118;2023-02-01T12:45:56;5.86;5.49;
41382;PMS5003;27971;53.902;9.118;2023-02-01T12:47:59;8.58;7.36;